Time,TemperatureF,DewpointF,PressureIn,WindDirection,WindDirectionDegrees,WindSpeedMPH,WindSpeedGustMPH,Humidity,HourlyPrecipIn,Conditions,Clouds,dailyrainin,SoftwareType,DateUTC
2013-04-28 08:00:00,68.5,65.8,29.80,SSE,157,1.7,-999.0,91,-99.99,,,0.01,Acu-Link.com,2013-04-28 13:00:00,
2013-04-28 08:15:00,67.8,66.3,29.80,SW,225,0.0,-999.0,95,-99.99,,,0.04,Acu-Link.com,2013-04-28 13:15:00,
2013-04-28 08:30:00,67.8,66.6,29.80,SSE,157,0.0,-999.0,96,-99.99,,,0.11,Acu-Link.com,2013-04-28 13:30:00,
2013-04-28 08:46:00,67.8,66.9,29.80,SE,135,0.0,-999.0,97,-99.99,,,0.11,Acu-Link.com,2013-04-28 13:46:00,
2013-04-28 09:01:00,68.4,67.8,29.79,SE,135,0.0,-999.0,98,-99.99,,,0.12,Acu-Link.com,2013-04-28 14:01:00,
2013-04-28 09:16:00,69.3,69.0,29.79,SW,225,0.0,-999.0,99,-99.99,,,0.12,Acu-Link.com,2013-04-28 14:16:00,
2013-04-28 09:32:00,69.8,69.5,29.79,WSW,247,0.0,-999.0,99,-99.99,,,0.12,Acu-Link.com,2013-04-28 14:32:00,
2013-04-28 09:50:00,70.7,70.4,29.79,SSW,202,2.2,-999.0,99,-99.99,,,0.12,Acu-Link.com,2013-04-28 14:50:00,
2013-04-28 10:12:00,71.8,70.6,29.79,SSW,202,3.2,-999.0,96,-99.99,,,0.12,Acu-Link.com,2013-04-28 15:12:00,
2013-04-28 12:05:00,74.5,69.3,29.76,WNW,292,1.1,-999.0,84,-99.99,,,0.12,Acu-Link.com,2013-04-28 17:05:00,
2013-04-28 12:20:00,76.1,69.1,29.75,NW,315,1.7,-999.0,79,-99.99,,,0.12,Acu-Link.com,2013-04-28 17:20:00,
2013-04-28 12:36:00,77.0,69.6,29.77,SW,225,1.7,-999.0,78,-99.99,,,0.12,Acu-Link.com,2013-04-28 17:36:00,
2013-04-28 13:14:00,77.5,68.5,29.76,East,90,2.2,-999.0,74,-99.99,,,0.12,Acu-Link.com,2013-04-28 18:14:00,
2013-04-28 13:42:00,77.5,68.5,29.75,NNW,337,3.2,-999.0,74,-99.99,,,0.12,Acu-Link.com,2013-04-28 18:42:00,
2013-04-28 14:00:00,76.5,66.8,29.76,NNW,337,3.2,-999.0,72,-99.99,,,0.12,Acu-Link.com,2013-04-28 19:00:00,
2013-04-28 14:15:00,76.5,66.8,29.75,NW,315,3.7,-999.0,72,-99.99,,,0.12,Acu-Link.com,2013-04-28 19:15:00,
2013-04-28 14:45:00,76.5,67.2,29.75,WNW,292,1.7,-999.0,73,-99.99,,,0.12,Acu-Link.com,2013-04-28 19:45:00,
2013-04-28 15:08:00,73.4,68.3,29.76,WNW,292,2.2,-999.0,84,-99.99,,,0.12,Acu-Link.com,2013-04-28 20:08:00,
2013-04-28 15:23:00,70.0,67.2,29.75,SSW,202,1.1,-999.0,91,-99.99,,,0.16,Acu-Link.com,2013-04-28 20:23:00,
2013-04-28 15:38:00,69.1,67.0,29.74,SSE,157,2.2,-999.0,93,-99.99,,,0.17,Acu-Link.com,2013-04-28 20:38:00,
2013-04-28 15:53:00,69.1,67.0,29.74,WSW,247,0.0,-999.0,93,-99.99,,,0.17,Acu-Link.com,2013-04-28 20:53:00,
2013-04-28 16:10:00,69.1,67.6,29.73,ESE,112,1.7,-999.0,95,-99.99,,,0.18,Acu-Link.com,2013-04-28 21:10:00,
2013-04-28 16:26:00,68.7,66.9,29.73,SSE,157,0.0,-999.0,94,-99.99,,,0.18,Acu-Link.com,2013-04-28 21:26:00,
2013-04-28 16:42:00,68.0,66.2,29.72,ESE,112,1.1,-999.0,94,-99.99,,,0.18,Acu-Link.com,2013-04-28 21:42:00,
2013-04-28 16:57:00,68.0,66.5,29.74,SE,135,0.0,-999.0,95,-99.99,,,0.18,Acu-Link.com,2013-04-28 21:57:00,
2013-04-28 17:12:00,67.8,66.3,29.74,SE,135,0.0,-999.0,95,-99.99,,,0.18,Acu-Link.com,2013-04-28 22:12:00,
2013-04-28 17:27:00,67.8,66.3,29.73,SSE,157,0.0,-999.0,95,-99.99,,,0.18,Acu-Link.com,2013-04-28 22:27:00,
2013-04-28 17:43:00,67.8,66.3,29.73,ESE,112,0.0,-999.0,95,-99.99,,,0.18,Acu-Link.com,2013-04-28 22:43:00,
2013-04-28 17:58:00,68.0,66.8,29.72,SSE,157,0.0,-999.0,96,-99.99,,,0.18,Acu-Link.com,2013-04-28 22:58:00,
2013-04-28 18:15:00,68.0,66.8,29.72,South,180,1.1,-999.0,96,-99.99,,,0.18,Acu-Link.com,2013-04-28 23:15:00,
2013-04-28 18:30:00,67.8,66.6,29.71,WSW,247,0.0,-999.0,96,-99.99,,,0.18,Acu-Link.com,2013-04-28 23:30:00,
2013-04-28 18:51:00,67.8,66.6,29.71,SE,135,0.0,-999.0,96,-99.99,,,0.18,Acu-Link.com,2013-04-28 23:51:00,
2013-04-28 19:06:00,67.5,66.3,29.71,SE,135,1.7,-999.0,96,-99.99,,,0.18,Acu-Link.com,2013-04-29 00:06:00,
2013-04-28 19:24:00,67.1,65.9,29.72,NNW,337,0.0,-999.0,96,-99.99,,,0.18,Acu-Link.com,2013-04-29 00:24:00,
2013-04-28 19:39:00,67.1,65.9,29.73,ESE,112,0.0,-999.0,96,-99.99,,,0.18,Acu-Link.com,2013-04-29 00:39:00,
2013-04-28 19:54:00,66.7,65.5,29.74,East,90,0.0,-999.0,96,-99.99,,,0.18,Acu-Link.com,2013-04-29 00:54:00,
2013-04-28 20:09:00,66.6,65.4,29.75,ENE,67,0.0,-999.0,96,-99.99,,,0.18,Acu-Link.com,2013-04-29 01:09:00,
2013-04-28 20:25:00,66.4,65.2,29.75,ESE,112,0.0,-999.0,96,-99.99,,,0.18,Acu-Link.com,2013-04-29 01:25:00,
2013-04-28 20:40:00,66.2,65.0,29.75,SE,135,1.1,-999.0,96,-99.99,,,0.18,Acu-Link.com,2013-04-29 01:40:00,
2013-04-28 20:59:00,66.0,64.8,29.75,SSE,157,0.0,-999.0,96,-99.99,,,0.18,Acu-Link.com,2013-04-29 01:59:00,
2013-04-28 21:59:00,65.5,64.6,29.77,SSE,157,0.0,-999.0,97,-99.99,,,0.18,Acu-Link.com,2013-04-29 02:59:00,
2013-04-28 22:15:00,65.5,64.6,29.77,SE,135,1.1,-999.0,97,-99.99,,,0.18,Acu-Link.com,2013-04-29 03:15:00,
2013-04-28 22:52:00,65.5,64.6,29.78,ESE,112,0.0,-999.0,97,-99.99,,,0.18,Acu-Link.com,2013-04-29 03:52:00,
2013-04-28 23:24:00,65.3,64.4,29.77,ESE,112,0.0,-999.0,97,-99.99,,,0.18,Acu-Link.com,2013-04-29 04:24:00,
2013-04-28 23:40:00,64.9,64.0,29.77,ESE,112,0.0,-999.0,97,-99.99,,,0.18,Acu-Link.com,2013-04-29 04:40:00,